Time;durP1;ratioP1;P1;durP2;ratioP2;P2;SDS_P1;SDS_P2;PMS_P1;PMS_P2;Temp;Humidity;BMP_temperature;BMP_pressure;BME280_temperature;BME280_humidity;BME280_pressure;Samples;Min_cycle;Max_cycle;Signal;HPM_P1;HPM_P2
2023/04/18 00:01:05;;;;;;;12.13;6.97;;;;;;;;;;5006532;28;20540;-75
2023/04/18 00:03:30;;;;;;;10.10;6.43;;;;;;;;;;5014080;28;20051;-75
2023/04/18 00:05:56;;;;;;;8.60;5.85;;;;;;;;;;5014755;28;20449;-75
2023/04/18 00:08:22;;;;;;;12.48;7.32;;;;;;;;;;5008914;28;20029;-75
2023/04/18 00:10:47;;;;;;;13.30;7.55;;;;;;;;;;5003828;28;20509;-75
2023/04/18 00:13:13;;;;;;;11.73;6.90;;;;;;;;;;5009829;28;20064;-75
2023/04/18 00:15:40;;;;;;;10.93;7.25;;;;;;;;;;5005985;28;20026;-75
2023/04/18 00:18:07;;;;;;;10.32;6.63;;;;;;;;;;5011621;28;20533;-75
2023/04/18 00:20:32;;;;;;;9.60;5.93;;;;;;;;;;5008178;28;20029;-74
2023/04/18 00:22:59;;;;;;;9.90;6.03;;;;;;;;;;5006013;28;20022;-75
2023/04/18 00:25:25;;;;;;;10.25;6.47;;;;;;;;;;5002262;28;20060;-75
2023/04/18 00:27:50;;;;;;;11.15;7.00;;;;;;;;;;5007925;28;20458;-75
2023/04/18 00:30:16;;;;;;;8.93;5.88;;;;;;;;;;5010226;28;20038;-74
2023/04/18 00:32:41;;;;;;;9.88;5.88;;;;;;;;;;5006491;28;20029;-74
2023/04/18 00:35:07;;;;;;;9.80;5.43;;;;;;;;;;5009859;28;20025;-75
2023/04/18 00:37:32;;;;;;;11.80;6.75;;;;;;;;;;5014549;28;20651;-74
2023/04/18 00:39:57;;;;;;;10.48;6.07;;;;;;;;;;5016340;28;20095;-75
2023/04/18 00:42:27;;;;;;;10.18;6.25;;;;;;;;;;5008620;28;20026;-75
2023/04/18 00:44:52;;;;;;;10.07;6.47;;;;;;;;;;5010547;28;20014;-74
2023/04/18 00:47:18;;;;;;;11.88;6.70;;;;;;;;;;5016339;28;20036;-74
2023/04/18 00:49:44;;;;;;;11.73;6.82;;;;;;;;;;5017428;28;20033;-75
2023/04/18 00:52:11;;;;;;;10.27;6.72;;;;;;;;;;5013182;28;20536;-75
2023/04/18 00:54:37;;;;;;;9.88;6.70;;;;;;;;;;5014206;28;20052;-75
2023/04/18 00:57:03;;;;;;;11.05;6.68;;;;;;;;;;5013019;28;20026;-75
2023/04/18 00:59:29;;;;;;;11.35;6.97;;;;;;;;;;5016702;28;20036;-75
2023/04/18 01:01:54;;;;;;;11.38;6.57;;;;;;;;;;5020348;28;20029;-75
2023/04/18 01:04:20;;;;;;;10.00;6.88;;;;;;;;;;5014122;28;20014;-75
2023/04/18 01:06:45;;;;;;;10.60;6.82;;;;;;;;;;5012099;28;20014;-76
2023/04/18 01:09:12;;;;;;;10.52;6.43;;;;;;;;;;5009353;28;20045;-75
2023/04/18 01:11:38;;;;;;;9.10;6.30;;;;;;;;;;5014222;28;20028;-75
2023/04/18 01:14:06;;;;;;;8.13;6.45;;;;;;;;;;5013094;28;20025;-75
2023/04/18 01:16:32;;;;;;;8.70;6.00;;;;;;;;;;5011076;28;20056;-76
2023/04/18 01:18:58;;;;;;;9.50;6.00;;;;;;;;;;5008894;28;21286;-76
2023/04/18 01:21:25;;;;;;;8.45;5.90;;;;;;;;;;5020904;28;20021;-76
2023/04/18 01:23:52;;;;;;;9.57;6.68;;;;;;;;;;5010622;28;20509;-75
2023/04/18 01:26:17;;;;;;;9.52;6.15;;;;;;;;;;5011046;28;20482;-75
2023/04/18 01:28:43;;;;;;;9.52;6.22;;;;;;;;;;5013842;28;20100;-75
2023/04/18 01:31:09;;;;;;;8.52;6.05;;;;;;;;;;5010106;28;20024;-76
2023/04/18 01:33:34;;;;;;;10.23;6.38;;;;;;;;;;5009395;28;20037;-76
2023/04/18 01:35:59;;;;;;;8.82;6.03;;;;;;;;;;5011140;28;20033;-76
2023/04/18 01:38:25;;;;;;;9.02;5.45;;;;;;;;;;5010237;28;20546;-75
2023/04/18 01:40:50;;;;;;;8.73;5.78;;;;;;;;;;5013490;28;20022;-76
2023/04/18 01:43:15;;;;;;;9.88;5.72;;;;;;;;;;5017060;28;20513;-76
2023/04/18 01:45:41;;;;;;;7.50;5.10;;;;;;;;;;5009488;28;20088;-76
2023/04/18 01:48:06;;;;;;;7.68;5.15;;;;;;;;;;5009151;28;20443;-75
2023/04/18 01:50:31;;;;;;;6.47;4.88;;;;;;;;;;5008617;28;20025;-76
2023/04/18 01:52:57;;;;;;;6.18;4.85;;;;;;;;;;5019328;28;20666;-76
2023/04/18 01:55:22;;;;;;;8.40;5.70;;;;;;;;;;5015101;28;20029;-76
2023/04/18 01:57:49;;;;;;;8.68;5.55;;;;;;;;;;5018067;28;20510;-76
2023/04/18 02:00:15;;;;;;;8.13;5.28;;;;;;;;;;5008907;28;20660;-77
2023/04/18 02:02:41;;;;;;;7.10;5.38;;;;;;;;;;5013490;28;20026;-77
2023/04/18 02:05:07;;;;;;;6.68;4.85;;;;;;;;;;5017858;28;20097;-77
2023/04/18 02:07:32;;;;;;;3.92;2.88;;;;;;;;;;5018465;28;20025;-76
2023/04/18 02:09:57;;;;;;;6.70;4.53;;;;;;;;;;5014563;28;20045;-76
2023/04/18 02:12:23;;;;;;;6.55;4.30;;;;;;;;;;5012148;28;20017;-76
2023/04/18 02:14:54;;;;;;;5.10;3.65;;;;;;;;;;5014269;28;20113;-76
2023/04/18 02:17:22;;;;;;;6.50;4.35;;;;;;;;;;5011535;28;20025;-77
2023/04/18 02:19:47;;;;;;;5.57;4.00;;;;;;;;;;5017325;28;20026;-76
2023/04/18 02:22:12;;;;;;;5.28;3.88;;;;;;;;;;5010151;28;20037;-76
2023/04/18 02:24:38;;;;;;;3.90;3.30;;;;;;;;;;5012688;28;20089;-76
2023/04/18 02:27:03;;;;;;;4.97;3.38;;;;;;;;;;5009816;28;20402;-76
2023/04/18 02:29:29;;;;;;;4.60;3.67;;;;;;;;;;5026195;28;20027;-76
2023/04/18 02:32:25;;;;;;;3.97;3.28;;;;;;;;;;5015798;28;20109;-76
2023/04/18 02:34:51;;;;;;;4.25;2.85;;;;;;;;;;5005309;28;20205;-75
2023/04/18 02:37:16;;;;;;;5.18;4.00;;;;;;;;;;5005789;28;20117;-75
2023/04/18 02:39:57;;;;;;;4.45;3.30;;;;;;;;;;5008867;28;20025;-76
2023/04/18 02:42:22;;;;;;;4.97;3.50;;;;;;;;;;5016129;28;20626;-76
2023/04/18 02:44:47;;;;;;;3.08;2.70;;;;;;;;;;5006587;28;20105;-76
2023/04/18 02:47:13;;;;;;;4.05;3.20;;;;;;;;;;5010970;28;20045;-76
2023/04/18 02:49:38;;;;;;;4.40;3.05;;;;;;;;;;5014939;28;20056;-76
2023/04/18 02:52:03;;;;;;;4.97;3.20;;;;;;;;;;5027255;28;20630;-76
2023/04/18 02:54:29;;;;;;;3.28;2.08;;;;;;;;;;5005023;28;20116;-76
2023/04/18 02:56:55;;;;;;;5.10;3.60;;;;;;;;;;5007128;28;20022;-76
2023/04/18 02:59:21;;;;;;;4.75;3.22;;;;;;;;;;5008096;28;20056;-76
2023/04/18 03:01:46;;;;;;;4.38;3.33;;;;;;;;;;5011599;28;20065;-76
2023/04/18 03:04:12;;;;;;;5.20;3.53;;;;;;;;;;5011499;28;20492;-77
2023/04/18 03:06:37;;;;;;;5.38;3.45;;;;;;;;;;5018569;28;20044;-76
2023/04/18 03:09:03;;;;;;;6.40;4.05;;;;;;;;;;5001520;28;20025;-76
2023/04/18 03:11:28;;;;;;;4.22;2.90;;;;;;;;;;5008263;28;20360;-76
2023/04/18 03:13:54;;;;;;;6.80;4.47;;;;;;;;;;5007839;28;20390;-76
2023/04/18 03:16:20;;;;;;;6.55;4.05;;;;;;;;;;5007362;28;20036;-76
2023/04/18 03:18:45;;;;;;;6.13;3.97;;;;;;;;;;5009449;28;20034;-76
2023/04/18 03:21:10;;;;;;;6.75;3.90;;;;;;;;;;5007227;28;20390;-76
2023/04/18 03:23:36;;;;;;;5.53;3.65;;;;;;;;;;5009860;28;20017;-76
2023/04/18 03:26:04;;;;;;;4.72;2.78;;;;;;;;;;5011002;28;20452;-77
2023/04/18 03:28:29;;;;;;;5.35;4.05;;;;;;;;;;5016407;28;20075;-76
2023/04/18 03:30:55;;;;;;;6.60;4.22;;;;;;;;;;5009051;28;20279;-76
2023/04/18 03:33:21;;;;;;;5.43;3.75;;;;;;;;;;5007204;28;20037;-76
2023/04/18 03:35:46;;;;;;;5.82;4.07;;;;;;;;;;5008190;28;20036;-76
2023/04/18 03:38:12;;;;;;;5.50;3.90;;;;;;;;;;5012514;28;20025;-77
2023/04/18 03:40:37;;;;;;;6.93;4.88;;;;;;;;;;5009502;28;20034;-76
2023/04/18 03:43:02;;;;;;;3.97;3.17;;;;;;;;;;5007003;28;20084;-77
2023/04/18 03:45:28;;;;;;;6.22;4.15;;;;;;;;;;5009283;28;20044;-77
2023/04/18 03:47:53;;;;;;;5.75;3.92;;;;;;;;;;5007126;28;20029;-76
2023/04/18 03:50:19;;;;;;;6.78;4.40;;;;;;;;;;5010827;28;20033;-77
2023/04/18 03:52:44;;;;;;;4.35;3.47;;;;;;;;;;5012682;28;20050;-76
2023/04/18 03:55:10;;;;;;;5.90;3.10;;;;;;;;;;5013516;28;20467;-76
2023/04/18 03:57:35;;;;;;;6.78;3.70;;;;;;;;;;5013243;28;20033;-76
2023/04/18 04:00:01;;;;;;;5.10;3.17;;;;;;;;;;5011290;28;20466;-76
2023/04/18 04:02:26;;;;;;;4.65;3.10;;;;;;;;;;5017561;28;20048;-76
2023/04/18 04:04:51;;;;;;;5.78;3.60;;;;;;;;;;5005895;28;20018;-76
2023/04/18 04:07:17;;;;;;;4.35;3.15;;;;;;;;;;5018189;28;20041;-76
2023/04/18 04:09:42;;;;;;;4.63;3.13;;;;;;;;;;5016475;28;20129;-77
2023/04/18 04:12:07;;;;;;;4.72;3.17;;;;;;;;;;5021108;28;20120;-77
2023/04/18 04:14:33;;;;;;;7.03;3.88;;;;;;;;;;5015238;28;20032;-77
2023/04/18 04:16:58;;;;;;;4.72;2.83;;;;;;;;;;5009757;28;20041;-77
2023/04/18 04:19:24;;;;;;;5.35;3.00;;;;;;;;;;5014235;28;20108;-76
2023/04/18 04:21:49;;;;;;;6.80;3.70;;;;;;;;;;5013006;28;20021;-76
2023/04/18 04:24:15;;;;;;;8.32;3.67;;;;;;;;;;5027110;28;20105;-75
2023/04/18 04:26:42;;;;;;;6.60;4.00;;;;;;;;;;5008212;28;20026;-77
2023/04/18 04:29:09;;;;;;;6.10;3.92;;;;;;;;;;5010449;28;20544;-76
2023/04/18 04:31:34;;;;;;;8.88;4.68;;;;;;;;;;5013680;28;20133;-76
2023/04/18 04:34:00;;;;;;;5.97;3.97;;;;;;;;;;5014241;28;20109;-76
2023/04/18 04:36:26;;;;;;;7.93;4.15;;;;;;;;;;5015298;28;20061;-76
2023/04/18 04:38:51;;;;;;;8.15;4.10;;;;;;;;;;5010780;28;20429;-76
2023/04/18 04:41:17;;;;;;;9.13;4.70;;;;;;;;;;5014608;28;20045;-76
2023/04/18 04:43:42;;;;;;;7.68;4.78;;;;;;;;;;5014606;28;20493;-76
2023/04/18 04:46:08;;;;;;;9.02;5.30;;;;;;;;;;5015808;28;20104;-76
2023/04/18 04:48:33;;;;;;;10.40;5.57;;;;;;;;;;5009578;28;20083;-75
2023/04/18 04:50:59;;;;;;;7.32;4.07;;;;;;;;;;5011478;28;20091;-76
2023/04/18 04:53:29;;;;;;;13.70;6.57;;;;;;;;;;5012931;28;20034;-74
2023/04/18 04:55:54;;;;;;;12.90;7.15;;;;;;;;;;5011211;28;20022;-76
2023/04/18 04:58:20;;;;;;;10.80;5.50;;;;;;;;;;5006087;28;20029;-75
2023/04/18 05:00:46;;;;;;;15.88;7.72;;;;;;;;;;5010960;28;20040;-76
2023/04/18 05:03:11;;;;;;;14.77;7.90;;;;;;;;;;5009484;28;20077;-74
2023/04/18 05:05:36;;;;;;;13.48;7.35;;;;;;;;;;5009150;28;20032;-74
2023/04/18 05:08:02;;;;;;;18.40;8.63;;;;;;;;;;5011883;28;20689;-74
2023/04/18 05:10:28;;;;;;;16.83;8.23;;;;;;;;;;5012670;28;20041;-74
2023/04/18 05:12:53;;;;;;;16.67;9.05;;;;;;;;;;5012689;28;20021;-75
2023/04/18 05:15:19;;;;;;;20.88;10.43;;;;;;;;;;5011367;28;20034;-74
2023/04/18 05:17:45;;;;;;;17.15;8.75;;;;;;;;;;5007410;28;20030;-75
2023/04/18 05:20:10;;;;;;;18.95;9.55;;;;;;;;;;5001815;28;20110;-73
2023/04/18 05:22:36;;;;;;;16.33;8.77;;;;;;;;;;5004445;28;20022;-73
2023/04/18 05:25:01;;;;;;;21.58;9.95;;;;;;;;;;5008398;28;20393;-74
2023/04/18 05:27:27;;;;;;;18.75;9.38;;;;;;;;;;5008326;28;20084;-76
2023/04/18 05:29:52;;;;;;;17.60;9.93;;;;;;;;;;5009305;28;20063;-75
2023/04/18 05:32:18;;;;;;;21.67;10.98;;;;;;;;;;5003459;28;20049;-75
2023/04/18 05:34:43;;;;;;;19.98;10.10;;;;;;;;;;5011493;28;20121;-76
2023/04/18 05:37:09;;;;;;;15.70;9.05;;;;;;;;;;5007960;28;20038;-75
2023/04/18 05:39:34;;;;;;;18.75;9.90;;;;;;;;;;5010902;28;20099;-76
2023/04/18 05:42:01;;;;;;;18.20;10.27;;;;;;;;;;5003954;28;20022;-76
2023/04/18 05:44:26;;;;;;;19.38;10.70;;;;;;;;;;5013771;28;20029;-76
2023/04/18 05:46:52;;;;;;;20.83;10.13;;;;;;;;;;5013132;28;20022;-76
2023/04/18 05:49:18;;;;;;;19.85;10.20;;;;;;;;;;5030601;28;20429;-75
2023/04/18 05:51:43;;;;;;;19.55;11.18;;;;;;;;;;5016722;28;20037;-76
2023/04/18 05:54:09;;;;;;;20.92;10.50;;;;;;;;;;5008702;28;20072;-76
2023/04/18 05:56:35;;;;;;;23.17;11.50;;;;;;;;;;5018029;28;20049;-76
2023/04/18 05:59:00;;;;;;;16.27;9.68;;;;;;;;;;5013121;28;20383;-75
2023/04/18 06:01:26;;;;;;;19.33;10.52;;;;;;;;;;5009359;28;20038;-76
2023/04/18 06:03:53;;;;;;;16.77;9.63;;;;;;;;;;5009986;28;20490;-76
2023/04/18 06:06:18;;;;;;;19.55;11.43;;;;;;;;;;5007035;28;20037;-75
2023/04/18 06:08:44;;;;;;;20.38;11.27;;;;;;;;;;5014358;28;20021;-75
2023/04/18 06:11:09;;;;;;;19.10;10.95;;;;;;;;;;5011467;28;20075;-76
2023/04/18 06:13:36;;;;;;;19.10;11.73;;;;;;;;;;5018415;28;20030;-76
2023/04/18 06:16:01;;;;;;;22.58;12.13;;;;;;;;;;5005430;28;20026;-75
2023/04/18 06:18:27;;;;;;;18.00;10.55;;;;;;;;;;5004593;28;20482;-73
2023/04/18 06:20:53;;;;;;;20.20;11.43;;;;;;;;;;4999275;28;20363;-76
2023/04/18 06:23:18;;;;;;;21.02;11.55;;;;;;;;;;5010095;28;20025;-76
2023/04/18 06:25:44;;;;;;;19.73;10.77;;;;;;;;;;5009205;28;20030;-76
2023/04/18 06:28:09;;;;;;;19.58;11.07;;;;;;;;;;5003696;28;20076;-76
2023/04/18 06:30:34;;;;;;;18.60;10.57;;;;;;;;;;5011029;28;20029;-74
2023/04/18 06:33:00;;;;;;;21.33;11.48;;;;;;;;;;5009847;28;20021;-76
2023/04/18 06:35:27;;;;;;;18.88;10.95;;;;;;;;;;5008318;28;20037;-76
2023/04/18 06:37:52;;;;;;;20.17;12.23;;;;;;;;;;5007126;28;20044;-75
2023/04/18 06:40:18;;;;;;;17.45;10.18;;;;;;;;;;5008075;28;20026;-76
2023/04/18 06:42:43;;;;;;;20.83;11.70;;;;;;;;;;5010312;28;20785;-75
2023/04/18 06:45:12;;;;;;;20.17;11.75;;;;;;;;;;5009803;28;20022;-75
2023/04/18 06:47:38;;;;;;;17.88;11.48;;;;;;;;;;5002036;28;20100;-76
2023/04/18 06:50:05;;;;;;;22.73;12.00;;;;;;;;;;5007211;28;20034;-75
2023/04/18 06:52:31;;;;;;;18.48;10.70;;;;;;;;;;5007947;28;20022;-75
2023/04/18 06:54:56;;;;;;;20.65;12.48;;;;;;;;;;5010423;28;20099;-74
2023/04/18 06:57:22;;;;;;;15.95;10.13;;;;;;;;;;5011444;28;20040;-74
2023/04/18 06:59:47;;;;;;;20.38;11.68;;;;;;;;;;4991318;28;20040;-75
2023/04/18 07:02:12;;;;;;;18.63;11.30;;;;;;;;;;5006967;28;20040;-75
2023/04/18 07:04:38;;;;;;;20.75;11.07;;;;;;;;;;5011975;28;20673;-75
2023/04/18 07:07:04;;;;;;;18.92;11.45;;;;;;;;;;5010664;28;20061;-75
2023/04/18 07:09:30;;;;;;;20.13;11.70;;;;;;;;;;5010000;28;20068;-75
2023/04/18 07:11:55;;;;;;;19.58;11.07;;;;;;;;;;5011401;28;20083;-74
2023/04/18 07:14:23;;;;;;;19.83;11.73;;;;;;;;;;5006081;28;20026;-75
2023/04/18 07:16:48;;;;;;;18.77;11.45;;;;;;;;;;5005407;28;20128;-74
2023/04/18 07:19:14;;;;;;;20.35;10.80;;;;;;;;;;5001624;28;20093;-74
2023/04/18 07:21:41;;;;;;;17.27;10.80;;;;;;;;;;5011966;28;20083;-75
2023/04/18 07:24:07;;;;;;;18.33;10.55;;;;;;;;;;5008254;28;20491;-74
2023/04/18 07:26:32;;;;;;;18.48;10.27;;;;;;;;;;5013127;28;20036;-75
2023/04/18 07:28:57;;;;;;;16.10;10.10;;;;;;;;;;5002925;28;20112;-74
2023/04/18 07:31:24;;;;;;;18.17;10.15;;;;;;;;;;5003824;28;20084;-75
2023/04/18 07:33:50;;;;;;;16.90;10.00;;;;;;;;;;5006467;28;20038;-75
2023/04/18 07:36:16;;;;;;;16.73;10.65;;;;;;;;;;5006045;28;20030;-75
2023/04/18 07:38:43;;;;;;;17.25;11.05;;;;;;;;;;5003491;28;20033;-75
2023/04/18 07:41:08;;;;;;;16.88;10.20;;;;;;;;;;5009857;28;20022;-75
2023/04/18 07:43:34;;;;;;;15.50;9.85;;;;;;;;;;5007637;28;20033;-75
2023/04/18 07:46:00;;;;;;;16.00;9.93;;;;;;;;;;5008833;28;20065;-75
2023/04/18 07:48:26;;;;;;;16.83;9.70;;;;;;;;;;5007127;28;20401;-75
2023/04/18 07:50:52;;;;;;;16.50;9.77;;;;;;;;;;5003069;28;20025;-75
2023/04/18 07:53:17;;;;;;;16.98;9.68;;;;;;;;;;5007369;28;20029;-76
2023/04/18 07:55:43;;;;;;;18.98;11.23;;;;;;;;;;5005256;28;20669;-75
2023/04/18 07:58:09;;;;;;;17.15;9.50;;;;;;;;;;5003466;28;20100;-76
2023/04/18 08:00:35;;;;;;;16.13;9.95;;;;;;;;;;5004934;28;20021;-75
2023/04/18 08:03:01;;;;;;;16.55;9.63;;;;;;;;;;5003806;28;20497;-76
2023/04/18 08:05:27;;;;;;;17.00;9.68;;;;;;;;;;5009396;28;20022;-76
2023/04/18 08:07:52;;;;;;;16.95;9.43;;;;;;;;;;5007529;28;20079;-76
2023/04/18 08:10:18;;;;;;;16.65;10.20;;;;;;;;;;5004428;28;20037;-74
2023/04/18 08:12:43;;;;;;;16.15;9.60;;;;;;;;;;5005229;28;20371;-75
2023/04/18 08:15:09;;;;;;;18.30;11.05;;;;;;;;;;5007488;28;20061;-75
2023/04/18 08:17:35;;;;;;;16.52;9.90;;;;;;;;;;5020315;28;20112;-73
2023/04/18 08:20:05;;;;;;;17.98;11.30;;;;;;;;;;5002718;28;20021;-75
2023/04/18 08:22:31;;;;;;;18.42;11.65;;;;;;;;;;5002131;28;21435;-75
2023/04/18 08:24:56;;;;;;;16.98;10.73;;;;;;;;;;5012304;28;20088;-74
2023/04/18 08:27:21;;;;;;;16.10;9.55;;;;;;;;;;5010780;28;20022;-75
2023/04/18 08:29:47;;;;;;;15.38;9.82;;;;;;;;;;4998065;28;20116;-75
2023/04/18 08:32:12;;;;;;;15.38;9.07;;;;;;;;;;5008561;28;20033;-75
2023/04/18 08:34:38;;;;;;;16.15;10.25;;;;;;;;;;5010261;28;20072;-75
2023/04/18 08:37:03;;;;;;;13.40;8.15;;;;;;;;;;5006178;28;20014;-75
2023/04/18 08:39:30;;;;;;;17.25;9.60;;;;;;;;;;5000326;28;20026;-76
2023/04/18 08:41:59;;;;;;;14.95;9.60;;;;;;;;;;5008039;28;20049;-75
2023/04/18 08:44:27;;;;;;;16.17;9.00;;;;;;;;;;5008143;28;20018;-74
2023/04/18 08:46:53;;;;;;;16.15;9.48;;;;;;;;;;5015505;28;20021;-75
2023/04/18 08:49:21;;;;;;;16.60;9.70;;;;;;;;;;4998152;28;20084;-74
2023/04/18 08:51:49;;;;;;;15.77;9.45;;;;;;;;;;5004840;28;20038;-75
2023/04/18 08:54:17;;;;;;;15.77;9.20;;;;;;;;;;5013995;28;20049;-75
2023/04/18 08:56:42;;;;;;;13.75;8.93;;;;;;;;;;5019934;28;20026;-75
2023/04/18 08:59:08;;;;;;;15.27;8.85;;;;;;;;;;5004888;28;20383;-76
2023/04/18 09:01:49;;;;;;;13.35;8.13;;;;;;;;;;5017573;28;20432;-74
2023/04/18 09:04:51;;;;;;;15.65;9.00;;;;;;;;;;5016053;28;20029;-75
2023/04/18 09:07:19;;;;;;;15.38;9.45;;;;;;;;;;5011629;28;20044;-76
2023/04/18 09:09:46;;;;;;;16.55;8.57;;;;;;;;;;5022623;28;20029;-75
2023/04/18 09:12:16;;;;;;;14.27;8.70;;;;;;;;;;5013494;28;20108;-75
2023/04/18 09:14:47;;;;;;;13.00;8.48;;;;;;;;;;5007902;28;20096;-73
2023/04/18 09:17:34;;;;;;;14.93;8.38;;;;;;;;;;5011676;28;20036;-74
2023/04/18 09:20:04;;;;;;;15.48;8.32;;;;;;;;;;5005527;28;20060;-75
2023/04/18 09:22:44;;;;;;;14.32;8.25;;;;;;;;;;5009126;28;20025;-75
2023/04/18 09:25:14;;;;;;;13.05;8.30;;;;;;;;;;5010303;28;20452;-76
2023/04/18 09:27:39;;;;;;;15.35;8.63;;;;;;;;;;5012083;28;20014;-73
2023/04/18 09:30:05;;;;;;;16.58;9.68;;;;;;;;;;5005383;28;20048;-75
2023/04/18 09:32:32;;;;;;;12.27;8.52;;;;;;;;;;5008545;28;20042;-75
2023/04/18 09:35:04;;;;;;;16.38;9.05;;;;;;;;;;5007720;28;20046;-75
2023/04/18 09:37:29;;;;;;;14.55;9.05;;;;;;;;;;5012210;28;20044;-75
2023/04/18 09:39:55;;;;;;;14.27;8.93;;;;;;;;;;5006087;28;20021;-75
2023/04/18 09:42:21;;;;;;;14.13;8.77;;;;;;;;;;5011802;28;20013;-76
2023/04/18 09:45:15;;;;;;;14.40;8.35;;;;;;;;;;5008096;28;20430;-75
2023/04/18 09:47:41;;;;;;;13.82;8.98;;;;;;;;;;4987927;28;20036;-75
2023/04/18 09:50:08;;;;;;;14.77;8.38;;;;;;;;;;5006523;28;20037;-75
2023/04/18 09:52:44;;;;;;;13.07;8.32;;;;;;;;;;5006092;28;20054;-75
2023/04/18 09:55:15;;;;;;;13.23;8.05;;;;;;;;;;5005367;28;20079;-75
2023/04/18 09:57:42;;;;;;;;;;;;;;;;;;5013377;28;20630;-75
2023/04/18 10:00:16;;;;;;;12.57;8.25;;;;;;;;;;5008173;28;19933;-75
2023/04/18 10:03:09;;;;;;;13.88;8.60;;;;;;;;;;5010233;28;20026;-75
2023/04/18 10:05:37;;;;;;;12.32;7.93;;;;;;;;;;5012289;28;20041;-76
2023/04/18 10:08:02;;;;;;;12.85;8.32;;;;;;;;;;5003819;28;20057;-74
2023/04/18 10:10:28;;;;;;;15.15;9.05;;;;;;;;;;5014504;28;20552;-76
2023/04/18 10:12:57;;;;;;;13.32;8.02;;;;;;;;;;5010135;28;20042;-75
2023/04/18 10:15:27;;;;;;;13.73;8.38;;;;;;;;;;5008035;28;20030;-75
2023/04/18 10:17:53;;;;;;;12.60;7.95;;;;;;;;;;5006475;28;20386;-75
2023/04/18 10:20:20;;;;;;;13.88;9.05;;;;;;;;;;5001767;28;20025;-75
2023/04/18 10:22:47;;;;;;;12.00;7.75;;;;;;;;;;5005814;28;20057;-75
2023/04/18 10:25:33;;;;;;;12.57;8.25;;;;;;;;;;5012134;28;20080;-75
2023/04/18 10:28:01;;;;;;;14.85;10.35;;;;;;;;;;5007488;28;20033;-75
2023/04/18 10:30:42;;;;;;;13.15;8.95;;;;;;;;;;5012179;28;20042;-75
2023/04/18 10:33:23;;;;;;;13.90;10.20;;;;;;;;;;5010273;28;20036;-75
2023/04/18 10:36:19;;;;;;;16.55;9.90;;;;;;;;;;5009291;28;20064;-75
2023/04/18 10:38:58;;;;;;;14.82;10.07;;;;;;;;;;4999384;28;20036;-74
2023/04/18 10:41:33;;;;;;;14.63;9.73;;;;;;;;;;5007766;28;20049;-75
2023/04/18 10:44:08;;;;;;;17.25;9.52;;;;;;;;;;5005634;28;20118;-75
2023/04/18 10:46:35;;;;;;;13.95;9.05;;;;;;;;;;5005928;28;20037;-76
2023/04/18 10:49:20;;;;;;;12.52;9.20;;;;;;;;;;5001199;28;20439;-75
2023/04/18 10:51:52;;;;;;;14.98;9.95;;;;;;;;;;5011424;28;20113;-75
2023/04/18 10:54:31;;;;;;;12.82;7.97;;;;;;;;;;5011857;28;20014;-75
2023/04/18 10:57:02;;;;;;;17.20;10.55;;;;;;;;;;5008752;28;20483;-75
2023/04/18 10:59:28;;;;;;;;;;;;;;;;;;5001726;28;20080;-75
2023/04/18 11:01:56;;;;;;;12.10;8.55;;;;;;;;;;5008927;28;19988;-74
2023/04/18 11:04:22;;;;;;;12.40;8.80;;;;;;;;;;5013264;28;20566;-75
2023/04/18 11:06:49;;;;;;;15.45;9.15;;;;;;;;;;5008510;28;20029;-75
2023/04/18 11:09:15;;;;;;;13.55;9.73;;;;;;;;;;5003773;28;20045;-75
2023/04/18 11:11:41;;;;;;;12.90;8.68;;;;;;;;;;5010423;28;20025;-75
2023/04/18 11:14:06;;;;;;;12.50;8.00;;;;;;;;;;5027602;28;20422;-75
2023/04/18 11:16:32;;;;;;;11.98;8.70;;;;;;;;;;5004870;28;20048;-75
2023/04/18 11:18:58;;;;;;;11.63;8.20;;;;;;;;;;5000787;28;20025;-75
2023/04/18 11:21:26;;;;;;;13.32;8.00;;;;;;;;;;5013156;28;20435;-76
2023/04/18 11:23:54;;;;;;;14.27;9.15;;;;;;;;;;5010299;28;20080;-75
2023/04/18 11:26:23;;;;;;;13.27;8.73;;;;;;;;;;5011760;28;20033;-76
2023/04/18 11:28:57;;;;;;;11.45;7.60;;;;;;;;;;5003620;28;20092;-76
2023/04/18 11:31:24;;;;;;;11.73;8.55;;;;;;;;;;5006436;28;20024;-76
2023/04/18 11:33:55;;;;;;;10.75;7.57;;;;;;;;;;5011026;28;20091;-75
2023/04/18 11:36:21;;;;;;;12.95;8.18;;;;;;;;;;5007380;28;20132;-75
2023/04/18 11:38:48;;;;;;;11.75;8.10;;;;;;;;;;5005060;28;20486;-76
2023/04/18 11:41:14;;;;;;;13.70;8.30;;;;;;;;;;5011521;28;20030;-76
2023/04/18 11:43:44;;;;;;;11.65;8.52;;;;;;;;;;5012062;28;20037;-76
2023/04/18 11:46:10;;;;;;;11.75;8.00;;;;;;;;;;5010396;28;20067;-76
2023/04/18 11:48:37;;;;;;;11.02;7.65;;;;;;;;;;5004143;28;20022;-76
2023/04/18 11:51:04;;;;;;;10.02;7.13;;;;;;;;;;5010082;28;20046;-76
2023/04/18 11:53:34;;;;;;;11.80;7.82;;;;;;;;;;5010095;28;20033;-76
2023/04/18 11:56:02;;;;;;;9.77;7.10;;;;;;;;;;5010793;28;20073;-76
2023/04/18 11:58:35;;;;;;;11.77;7.25;;;;;;;;;;5003036;28;20033;-76
2023/04/18 12:01:21;;;;;;;9.57;7.15;;;;;;;;;;5011332;28;20060;-76
2023/04/18 12:04:06;;;;;;;10.45;7.90;;;;;;;;;;5012265;28;20050;-76
2023/04/18 12:06:52;;;;;;;10.98;7.43;;;;;;;;;;5010883;28;20034;-76
2023/04/18 12:09:20;;;;;;;11.25;7.88;;;;;;;;;;5002262;28;20394;-76
2023/04/18 12:12:02;;;;;;;9.32;6.85;;;;;;;;;;5010743;28;20198;-76
2023/04/18 12:14:29;;;;;;;11.00;8.00;;;;;;;;;;5010039;28;20076;-76
2023/04/18 12:16:56;;;;;;;10.57;8.15;;;;;;;;;;5009188;28;20041;-76
2023/04/18 12:19:26;;;;;;;11.23;7.72;;;;;;;;;;5002257;28;20036;-76
2023/04/18 12:22:05;;;;;;;11.48;8.75;;;;;;;;;;5006302;28;20486;-75
2023/04/18 12:24:31;;;;;;;10.50;8.00;;;;;;;;;;5011300;28;20026;-76
2023/04/18 12:26:57;;;;;;;12.80;9.00;;;;;;;;;;5003251;28;20042;-76
2023/04/18 12:29:24;;;;;;;11.70;8.40;;;;;;;;;;4994219;28;20152;-76
2023/04/18 12:31:50;;;;;;;13.25;8.90;;;;;;;;;;5010298;28;20517;-76
2023/04/18 12:34:15;;;;;;;13.52;8.77;;;;;;;;;;5012416;28;20022;-75
2023/04/18 12:36:41;;;;;;;10.57;7.75;;;;;;;;;;5012276;28;20390;-75
2023/04/18 12:39:06;;;;;;;14.55;8.85;;;;;;;;;;4996610;28;20140;-76
2023/04/18 12:41:32;;;;;;;13.82;8.73;;;;;;;;;;5010470;28;20053;-75
2023/04/18 12:43:57;;;;;;;11.57;8.23;;;;;;;;;;5011852;28;20441;-76
2023/04/18 12:46:23;;;;;;;11.90;7.97;;;;;;;;;;5010637;28;20541;-76
2023/04/18 12:48:48;;;;;;;11.95;7.95;;;;;;;;;;5001584;28;20075;-76
2023/04/18 12:51:13;;;;;;;10.88;7.60;;;;;;;;;;5006095;28;20025;-76
2023/04/18 12:53:39;;;;;;;14.50;8.73;;;;;;;;;;5002126;28;20061;-76
2023/04/18 12:56:05;;;;;;;9.90;7.50;;;;;;;;;;5009452;28;20029;-76
2023/04/18 12:58:30;;;;;;;10.45;7.57;;;;;;;;;;5005935;23;20009;-80
2023/04/18 13:00:58;;;;;;;7.93;6.43;;;;;;;;;;4987111;28;20042;-81
2023/04/18 13:03:24;;;;;;;9.32;7.10;;;;;;;;;;4987016;28;20429;-80
2023/04/18 13:05:52;;;;;;;18.80;7.88;;;;;;;;;;4989662;28;20532;-80
2023/04/18 13:08:17;;;;;;;11.18;7.32;;;;;;;;;;4979667;28;20034;-80
2023/04/18 13:10:43;;;;;;;10.23;7.68;;;;;;;;;;4981954;28;20041;-79
2023/04/18 13:13:08;;;;;;;9.63;5.80;;;;;;;;;;4970641;28;20559;-80
2023/04/18 13:15:34;;;;;;;12.05;6.60;;;;;;;;;;4972436;28;20033;-80
2023/04/18 13:18:03;;;;;;;9.65;6.50;;;;;;;;;;4981211;28;20482;-80
2023/04/18 13:20:28;;;;;;;9.30;6.57;;;;;;;;;;4982125;28;20537;-80
2023/04/18 13:22:54;;;;;;;8.02;6.18;;;;;;;;;;4988798;28;20042;-80
2023/04/18 13:25:20;;;;;;;8.38;5.82;;;;;;;;;;5003883;28;20109;-80
2023/04/18 13:27:46;;;;;;;9.52;6.03;;;;;;;;;;4988336;28;20087;-79
2023/04/18 13:30:11;;;;;;;7.78;5.85;;;;;;;;;;4976711;28;20030;-80
2023/04/18 13:32:40;;;;;;;8.95;6.15;;;;;;;;;;4988071;28;20109;-82
2023/04/18 13:35:07;;;;;;;9.10;5.95;;;;;;;;;;4986957;28;20036;-80
2023/04/18 13:37:33;;;;;;;8.50;5.90;;;;;;;;;;4987460;28;20030;-80
2023/04/18 13:39:58;;;;;;;7.28;5.75;;;;;;;;;;4989206;28;20049;-80
2023/04/18 13:42:24;;;;;;;9.55;6.60;;;;;;;;;;5002404;28;20541;-82
2023/04/18 13:44:49;;;;;;;9.27;6.10;;;;;;;;;;4986980;28;20034;-80
2023/04/18 13:47:15;;;;;;;9.02;5.75;;;;;;;;;;4985734;28;20491;-84
2023/04/18 13:49:40;;;;;;;9.25;5.78;;;;;;;;;;4972743;28;20041;-82
2023/04/18 13:52:06;;;;;;;9.38;6.43;;;;;;;;;;4986074;28;20684;-82
2023/04/18 13:54:32;;;;;;;9.52;6.47;;;;;;;;;;5000869;28;20022;-81
2023/04/18 13:57:01;;;;;;;7.95;6.05;;;;;;;;;;4987534;28;20038;-82
2023/04/18 13:59:27;;;;;;;9.20;5.65;;;;;;;;;;4973546;28;20030;-82
2023/04/18 14:01:53;;;;;;;8.25;6.18;;;;;;;;;;4989583;28;20026;-81
2023/04/18 14:04:22;;;;;;;9.00;5.90;;;;;;;;;;4986652;28;20022;-81
2023/04/18 14:06:49;;;;;;;8.20;5.88;;;;;;;;;;4985990;28;20053;-82
2023/04/18 14:09:15;;;;;;;8.73;6.15;;;;;;;;;;4972400;28;20112;-83
2023/04/18 14:11:41;;;;;;;8.55;6.07;;;;;;;;;;4986710;28;20018;-81
2023/04/18 14:14:06;;;;;;;10.43;6.15;;;;;;;;;;5000470;28;20026;-83
2023/04/18 14:16:32;;;;;;;9.32;6.50;;;;;;;;;;4986141;28;20660;-81
2023/04/18 14:18:59;;;;;;;9.32;5.85;;;;;;;;;;4975845;28;20068;-82
2023/04/18 14:21:25;;;;;;;9.07;6.20;;;;;;;;;;4985428;28;20049;-82
2023/04/18 14:23:51;;;;;;;12.15;6.95;;;;;;;;;;4987231;28;20427;-81
2023/04/18 14:26:17;;;;;;;8.95;6.45;;;;;;;;;;4983037;28;20030;-81
2023/04/18 14:28:43;;;;;;;9.95;6.10;;;;;;;;;;4959251;28;20505;-80
2023/04/18 14:31:08;;;;;;;7.30;5.57;;;;;;;;;;4989724;28;20022;-81
2023/04/18 14:33:34;;;;;;;7.95;6.10;;;;;;;;;;4990259;28;20128;-80